Stations météo

réclame
Mon MeteoGroup
Lycksele, Suède (2262): Température de l'air & dewpoint: 15.08.2019 07:00:00 - 21.08.2019 07:00:00 (CEST)Lycksele, Suède (2262): Vitesse du vent: 15.08.2019 07:00:00 - 21.08.2019 07:00:00 (CEST)Lycksele, Suède (2262): Direction du vent: 15.08.2019 07:00:00 - 21.08.2019 07:00:00 (CEST)Lycksele, Suède (2262): visibility: 15.08.2019 07:00:00 - 21.08.2019 07:00:00 (CEST)
Date & Time tt [°C] td [°C] ff [km/h] ff [knt] dd vv [km]
21.08.2019 07:00:00 8,0 7,0 0 0 N 10
21.08.2019 06:00:00 7,0 7,0 0 0 N 10
21.08.2019 05:00:00 7,0 6,0 0 0 N 10
21.08.2019 04:00:00 7,0 6,0 0 0 N 10
21.08.2019 03:00:00 7,0 7,0 5 3 WSW 10
21.08.2019 02:00:00 8,0 8,0 0 0 N 10
21.08.2019 01:00:00 10,0 9,0 4 2 - 10
21.08.2019 00:00:00 11,0 9,0 9 5 WNW 10
20.08.2019 23:00:00 11,0 9,0 4 2 - 10
20.08.2019 22:00:00 12,0 10,0 5 3 SE 10
20.08.2019 21:00:00 13,0 10,0 2 1 ESE 10
20.08.2019 20:00:00 - - - - - -
20.08.2019 19:00:00 20,0 9,0 8 4 S 10
20.08.2019 18:00:00 20,0 9,0 18 10 S 10
20.08.2019 17:00:00 - - - - - -
20.08.2019 16:00:00 20,0 9,0 16 9 SSW 10
20.08.2019 15:00:00 20,0 10,0 5 3 - 10
20.08.2019 14:00:00 19,0 10,0 8 4 S 10
20.08.2019 13:00:00 19,0 9,0 13 7 SSW 10
20.08.2019 12:00:00 19,0 10,0 11 6 S 10
20.08.2019 11:00:00 18,0 10,0 5 3 - 10
20.08.2019 10:00:00 17,0 10,0 9 5 SSE 10
20.08.2019 09:00:00 15,0 10,0 5 3 SE 10
20.08.2019 08:00:00 14,0 10,0 5 3 S 10
20.08.2019 07:00:00 11,0 9,0 0 0 N 10
20.08.2019 06:00:00 8,0 8,0 5 3 NW 10
20.08.2019 05:00:00 7,0 7,0 8 4 SE 10
20.08.2019 04:00:00 8,0 8,0 5 3 - 10
20.08.2019 03:00:00 11,0 9,0 9 5 ESE 10
20.08.2019 02:00:00 12,0 8,0 5 3 E 10
20.08.2019 01:00:00 13,0 8,0 5 3 S 10
20.08.2019 00:00:00 10,0 9,0 8 4 SE 10
19.08.2019 23:00:00 10,0 9,0 8 4 SE 10
19.08.2019 22:00:00 14,0 9,0 11 6 SE 10
19.08.2019 21:00:00 13,0 10,0 8 4 SSE 10
19.08.2019 20:00:00 17,0 9,0 9 5 S 10
19.08.2019 19:00:00 18,0 9,0 9 5 S 10
19.08.2019 18:00:00 19,0 10,0 11 6 SSW 10
19.08.2019 17:00:00 19,0 9,0 13 7 SSW 10
19.08.2019 16:00:00 19,0 11,0 9 5 - 10
19.08.2019 15:00:00 19,0 12,0 13 7 SW 10
19.08.2019 14:00:00 18,0 13,0 9 5 SSW 10
19.08.2019 13:00:00 16,0 14,0 8 4 S 10
19.08.2019 12:00:00 15,0 13,0 2 1 - 10
19.08.2019 11:00:00 - - - - - -
19.08.2019 10:00:00 14,0 13,0 0 0 N 10
19.08.2019 09:00:00 14,0 12,0 5 3 - 10
19.08.2019 08:00:00 13,0 12,0 8 4 ESE 10
19.08.2019 07:00:00 13,0 12,0 5 3 ESE 10
19.08.2019 06:00:00 - - - - - -
19.08.2019 05:00:00 13,0 12,0 4 2 E 4,7
19.08.2019 04:00:00 13,0 13,0 5 3 ESE 10
19.08.2019 03:00:00 14,0 13,0 8 4 E 10
19.08.2019 02:00:00 14,0 14,0 5 3 ESE 7
19.08.2019 01:00:00 14,0 14,0 11 6 ESE 7
19.08.2019 00:00:00 15,0 13,0 9 5 ESE 10
18.08.2019 23:00:00 15,0 13,0 15 8 SE 10
18.08.2019 22:00:00 15,0 13,0 16 9 SE 10
18.08.2019 21:00:00 15,0 13,0 15 8 SE 10
18.08.2019 20:00:00 17,0 13,0 21 11 SE 10
18.08.2019 19:00:00 - - - - - -
18.08.2019 18:00:00 18,0 13,0 22 12 SE 10
18.08.2019 17:00:00 18,0 13,0 22 12 SE 10
18.08.2019 16:00:00 19,0 14,0 22 12 SE 10
18.08.2019 15:00:00 19,0 13,0 28 15 SE 10
18.08.2019 14:00:00 19,0 14,0 24 13 SE 10
18.08.2019 13:00:00 18,0 13,0 21 11 SE 10
18.08.2019 12:00:00 17,0 14,0 21 11 SE 10
18.08.2019 11:00:00 16,0 14,0 22 12 SE 10
18.08.2019 10:00:00 15,0 14,0 16 9 SE 5
18.08.2019 09:00:00 15,0 14,0 16 9 SE 10
18.08.2019 08:00:00 15,0 13,0 24 13 SE 10
18.08.2019 07:00:00 14,0 13,0 22 12 SE 10
18.08.2019 06:00:00 15,0 12,0 18 10 SE 10
18.08.2019 05:00:00 14,0 12,0 16 9 ESE 10
18.08.2019 04:00:00 14,0 12,0 21 11 SE 10
18.08.2019 03:00:00 14,0 12,0 21 11 SE 10
18.08.2019 02:00:00 14,0 12,0 18 10 SE 10
18.08.2019 01:00:00 14,0 11,0 18 10 SE 10
18.08.2019 00:00:00 14,0 11,0 16 9 SE 10
17.08.2019 23:00:00 14,0 11,0 18 10 SE 10
17.08.2019 22:00:00 14,0 11,0 16 9 SE 10
17.08.2019 21:00:00 15,0 10,0 16 9 SE 10
17.08.2019 20:00:00 15,0 10,0 18 10 SSE 10
17.08.2019 19:00:00 16,0 10,0 22 12 SE 10
17.08.2019 18:00:00 18,0 9,0 29 16 SE 10
17.08.2019 17:00:00 18,0 12,0 24 13 SE 10
17.08.2019 16:00:00 18,0 14,0 24 13 SE 10
17.08.2019 15:00:00 19,0 14,0 28 15 SE 10
17.08.2019 14:00:00 18,0 13,0 26 14 SE 10
17.08.2019 13:00:00 18,0 13,0 22 12 SE 10
17.08.2019 12:00:00 18,0 13,0 16 9 SE 10
17.08.2019 11:00:00 17,0 13,0 21 11 SE 10
17.08.2019 10:00:00 18,0 14,0 18 10 SE 10
17.08.2019 09:00:00 16,0 13,0 13 7 ESE 10
17.08.2019 08:00:00 15,0 13,0 9 5 SE 10
17.08.2019 07:00:00 14,0 12,0 5 3 SSE 10
17.08.2019 06:00:00 13,0 12,0 9 5 ESE 10
17.08.2019 05:00:00 12,0 12,0 9 5 SE 10
17.08.2019 04:00:00 10,0 9,0 4 2 - 10
17.08.2019 03:00:00 12,0 11,0 8 4 SE 10
17.08.2019 02:00:00 14,0 12,0 11 6 SE 10
17.08.2019 01:00:00 13,0 11,0 9 5 SE 10
17.08.2019 00:00:00 13,0 11,0 11 6 SE 10
16.08.2019 23:00:00 14,0 11,0 9 5 ESE 10
16.08.2019 22:00:00 14,0 11,0 13 7 SE 10
16.08.2019 21:00:00 15,0 11,0 13 7 SE 10
16.08.2019 20:00:00 16,0 11,0 15 8 SE 10
16.08.2019 19:00:00 18,0 9,0 13 7 SE 10
16.08.2019 18:00:00 18,0 9,0 9 5 SSE 10
16.08.2019 17:00:00 19,0 9,0 13 7 SE 10
16.08.2019 16:00:00 20,0 9,0 15 8 S 10
16.08.2019 15:00:00 19,0 7,0 18 10 SE 10
16.08.2019 14:00:00 17,0 8,0 11 6 S 10
16.08.2019 13:00:00 19,0 7,0 15 8 S 10
16.08.2019 12:00:00 19,0 8,0 18 10 SE 10
16.08.2019 11:00:00 18,0 8,0 9 5 ESE 10
16.08.2019 10:00:00 16,0 8,0 9 5 ESE 10
16.08.2019 09:00:00 13,0 8,0 4 2 - 10
16.08.2019 08:00:00 12,0 8,0 0 0 N 10
16.08.2019 07:00:00 9,0 7,0 0 0 N 10
16.08.2019 06:00:00 5,0 5,0 4 2 - 10
16.08.2019 05:00:00 6,0 5,0 0 0 N 10
16.08.2019 04:00:00 7,0 6,0 4 2 - 10
16.08.2019 03:00:00 7,0 6,0 2 1 - 10
16.08.2019 02:00:00 9,0 7,0 8 4 W 10
16.08.2019 01:00:00 9,0 8,0 8 4 WSW 10
16.08.2019 00:00:00 11,0 8,0 9 5 W 10
15.08.2019 23:00:00 12,0 9,0 8 4 W 10
15.08.2019 22:00:00 12,0 9,0 9 5 W 10
15.08.2019 21:00:00 13,0 9,0 9 5 W 10
15.08.2019 20:00:00 13,0 9,0 11 6 W 10
15.08.2019 19:00:00 14,0 9,0 16 9 WNW 10
15.08.2019 18:00:00 13,0 10,0 15 8 W 10
15.08.2019 17:00:00 13,0 10,0 24 13 NW 10
15.08.2019 16:00:00 13,0 10,0 24 13 WNW 10
15.08.2019 15:00:00 13,0 9,0 21 11 WNW 10
15.08.2019 14:00:00 13,0 9,0 18 10 W 10
15.08.2019 13:00:00 12,0 9,0 22 12 WNW 10
15.08.2019 12:00:00 12,0 9,0 22 12 WNW 10
15.08.2019 11:00:00 12,0 9,0 18 10 WNW 10
15.08.2019 10:00:00 - - - - - -
15.08.2019 09:00:00 11,0 9,0 18 10 WNW 9
15.08.2019 08:00:00 11,0 9,0 21 11 WNW 10
15.08.2019 07:00:00 11,0 8,0 16 9 WNW 10

tt = Température de l'air
td = dewpoint
ff = Vitesse du vent
dd = Direction du vent
vv = visibility

stations d'obs. à proximité